createdAt,value
2022-09-23T00:01:21.992Z,10.70
2022-09-23T00:03:49.364Z,10.60
2022-09-23T00:06:19.251Z,10.70
2022-09-23T00:08:54.827Z,10.60
2022-09-23T00:11:23.049Z,10.60
2022-09-23T00:13:58.998Z,10.70
2022-09-23T00:16:34.127Z,10.60
2022-09-23T00:19:02.891Z,10.60
2022-09-23T00:21:32.277Z,10.60
2022-09-23T00:24:02.265Z,10.60
2022-09-23T00:26:29.146Z,10.60
2022-09-23T00:28:55.930Z,10.60
2022-09-23T00:31:26.177Z,10.60
2022-09-23T00:33:58.574Z,10.60
2022-09-23T00:36:26.597Z,10.60
2022-09-23T00:38:54.425Z,10.50
2022-09-23T00:41:21.891Z,10.60
2022-09-23T00:44:02.070Z,10.50
2022-09-23T00:46:43.735Z,10.50
2022-09-23T00:49:15.332Z,10.40
2022-09-23T00:51:48.153Z,10.40
2022-09-23T00:54:15.005Z,10.40
2022-09-23T00:56:41.895Z,10.40
2022-09-23T00:59:11.621Z,10.40
2022-09-23T01:01:41.612Z,10.40
2022-09-23T01:04:14.758Z,10.40
2022-09-23T01:06:41.609Z,10.30
2022-09-23T01:09:08.505Z,10.30
2022-09-23T01:11:57.102Z,10.30
2022-09-23T01:14:41.785Z,10.30
2022-09-23T01:17:31.932Z,10.30
2022-09-23T01:20:25.948Z,10.20
2022-09-23T01:23:38.165Z,10.20
2022-09-23T01:26:44.664Z,10.20
2022-09-23T01:29:30.254Z,10.10
2022-09-23T01:32:25.199Z,10.10
2022-09-23T01:35:17.182Z,10.10
2022-09-23T01:38:10.748Z,10.00
2022-09-23T01:40:59.557Z,10.00
2022-09-23T01:44:02.710Z,10.00
2022-09-23T01:46:43.230Z,10.00
2022-09-23T01:49:18.945Z,10.00
2022-09-23T01:51:59.387Z,9.90
2022-09-23T01:54:36.514Z,9.90
2022-09-23T01:57:35.807Z,9.90
2022-09-23T02:00:17.982Z,9.90
2022-09-23T02:03:01.642Z,9.90
2022-09-23T02:06:01.796Z,9.90
2022-09-23T02:08:41.992Z,9.90
2022-09-23T02:11:11.892Z,9.90
2022-09-23T02:13:52.762Z,9.90
2022-09-23T02:16:33.134Z,9.90
2022-09-23T02:19:00.000Z,9.80
2022-09-23T02:21:36.049Z,9.80
2022-09-23T02:24:21.724Z,9.80
2022-09-23T02:26:55.506Z,9.80
2022-09-23T02:29:36.312Z,9.70
2022-09-23T02:32:21.991Z,9.70
2022-09-23T02:35:07.414Z,9.70
2022-09-23T02:37:47.594Z,9.70
2022-09-23T02:40:43.413Z,9.70
2022-09-23T02:43:31.361Z,9.70
2022-09-23T02:46:01.364Z,9.70
2022-09-23T02:48:41.286Z,9.60
2022-09-23T02:51:09.939Z,9.60
2022-09-23T02:53:37.251Z,9.60
2022-09-23T02:56:19.571Z,9.60
2022-09-23T02:58:52.607Z,9.60
2022-09-23T03:01:45.181Z,9.60
2022-09-23T03:04:17.372Z,9.60
2022-09-23T03:06:47.276Z,9.60
2022-09-23T03:09:49.100Z,9.60
2022-09-23T03:12:48.024Z,9.50
2022-09-23T03:15:59.691Z,9.50
2022-09-23T03:18:31.576Z,9.50
2022-09-23T03:21:21.979Z,9.50
2022-09-23T03:23:53.226Z,9.50
2022-09-23T03:26:24.868Z,9.40
2022-09-23T03:28:52.916Z,9.50
2022-09-23T03:31:19.904Z,9.50
2022-09-23T03:33:54.587Z,9.40
2022-09-23T03:36:51.711Z,9.40
2022-09-23T03:39:30.315Z,9.40
2022-09-23T03:42:00.654Z,9.40
2022-09-23T03:44:28.972Z,9.40
2022-09-23T03:47:04.432Z,9.30
2022-09-23T03:49:39.703Z,9.30
2022-09-23T03:52:07.151Z,9.30
2022-09-23T03:54:34.162Z,9.20
2022-09-23T03:57:02.908Z,9.20
2022-09-23T03:59:32.952Z,9.20
2022-09-23T04:02:02.564Z,9.20
2022-09-23T04:04:32.326Z,9.20
2022-09-23T04:06:59.096Z,9.20
2022-09-23T04:09:26.516Z,9.20
2022-09-23T04:11:53.847Z,9.20
2022-09-23T04:14:21.627Z,9.20
2022-09-23T04:16:51.706Z,9.20
2022-09-23T04:19:18.682Z,9.20
2022-09-23T04:21:47.939Z,9.20
2022-09-23T04:24:15.850Z,9.20
2022-09-23T04:26:44.257Z,9.10
2022-09-23T04:29:12.188Z,9.10
2022-09-23T04:31:41.691Z,9.10
2022-09-23T04:34:09.635Z,9.10
2022-09-23T04:36:38.992Z,9.00
2022-09-23T04:39:08.106Z,9.10
2022-09-23T04:41:37.287Z,9.10
2022-09-23T04:44:07.094Z,9.10
2022-09-23T04:46:36.421Z,9.10
2022-09-23T04:49:08.090Z,9.10
2022-09-23T04:51:35.526Z,9.10
2022-09-23T04:54:02.254Z,9.10
2022-09-23T04:56:34.333Z,9.20
2022-09-23T04:59:01.750Z,9.20
2022-09-23T05:01:31.551Z,9.10
2022-09-23T05:04:03.275Z,9.20
2022-09-23T05:06:31.534Z,9.10
2022-09-23T05:08:59.337Z,9.10
2022-09-23T05:11:27.111Z,9.10
2022-09-23T05:13:54.956Z,9.10
2022-09-23T05:16:23.877Z,9.10
2022-09-23T05:18:51.858Z,9.20
2022-09-23T05:21:23.605Z,9.20
2022-09-23T05:23:55.285Z,9.10
2022-09-23T05:26:25.352Z,9.10
2022-09-23T05:28:56.157Z,9.10
2022-09-23T05:31:37.407Z,9.10
2022-09-23T05:34:07.152Z,9.10
2022-09-23T05:36:39.246Z,9.10
2022-09-23T05:39:09.219Z,9.10
2022-09-23T05:41:36.644Z,9.10
2022-09-23T05:44:06.101Z,9.10
2022-09-23T05:46:33.582Z,9.10
2022-09-23T05:49:03.543Z,9.20
2022-09-23T05:51:34.763Z,9.20
2022-09-23T05:54:05.647Z,9.20
2022-09-23T05:56:33.799Z,9.30
2022-09-23T05:59:02.385Z,9.30
2022-09-23T06:01:33.568Z,9.30
2022-09-23T06:04:02.187Z,9.30
2022-09-23T06:06:31.910Z,9.30
2022-09-23T06:09:00.277Z,9.30
2022-09-23T06:11:30.053Z,9.40
2022-09-23T06:14:00.974Z,9.40
2022-09-23T06:16:29.481Z,9.40
2022-09-23T06:18:57.127Z,9.50
2022-09-23T06:21:26.235Z,9.50
2022-09-23T06:23:57.281Z,9.50
2022-09-23T06:26:24.180Z,9.50
2022-09-23T06:28:55.622Z,9.50
2022-09-23T06:31:22.398Z,9.50
2022-09-23T06:33:50.322Z,9.60
2022-09-23T06:36:34.997Z,9.60
2022-09-23T06:39:07.089Z,9.60
2022-09-23T06:41:34.012Z,9.70
2022-09-23T06:44:03.465Z,9.70
2022-09-23T06:46:31.953Z,9.80
2022-09-23T06:48:59.267Z,9.90
2022-09-23T06:51:26.252Z,9.90
2022-09-23T06:53:53.048Z,10.00
2022-09-23T06:56:23.014Z,10.10
2022-09-23T06:58:52.683Z,10.10
2022-09-23T07:01:24.744Z,10.20
2022-09-23T07:03:51.935Z,10.30
2022-09-23T07:06:20.979Z,10.30
2022-09-23T07:08:48.253Z,10.40
2022-09-23T07:11:15.944Z,10.50
2022-09-23T07:13:47.358Z,10.60
2022-09-23T07:16:16.996Z,10.70
2022-09-23T07:18:45.689Z,10.70
2022-09-23T07:21:18.225Z,10.80
2022-09-23T07:23:47.400Z,10.90
2022-09-23T07:26:18.888Z,10.90
2022-09-23T07:28:45.870Z,11.00
2022-09-23T07:31:16.994Z,11.10
2022-09-23T07:33:46.094Z,11.20
2022-09-23T07:36:17.196Z,11.50
2022-09-23T07:38:49.172Z,12.00
2022-09-23T07:41:18.881Z,12.50
2022-09-23T07:43:49.000Z,13.00
2022-09-23T07:46:17.699Z,13.40
2022-09-23T07:48:45.918Z,13.70
2022-09-23T07:51:23.604Z,13.80
2022-09-23T07:53:51.923Z,13.70
2022-09-23T07:56:20.322Z,13.80
2022-09-23T07:59:00.326Z,14.10
2022-09-23T08:01:35.722Z,14.40
2022-09-23T08:04:13.087Z,14.50
2022-09-23T08:06:45.211Z,14.50
2022-09-23T08:09:12.700Z,14.60
2022-09-23T08:11:41.826Z,14.80
2022-09-23T08:14:13.464Z,15.10
2022-09-23T08:16:41.523Z,15.70
2022-09-23T08:19:08.607Z,16.30
2022-09-23T08:21:38.974Z,16.90
2022-09-23T08:24:07.375Z,17.50
2022-09-23T08:26:34.415Z,17.70
2022-09-23T08:29:02.114Z,17.90
2022-09-23T08:31:28.956Z,18.00
2022-09-23T08:33:58.935Z,18.20
2022-09-23T08:36:28.280Z,18.70
2022-09-23T08:38:55.351Z,18.80
2022-09-23T08:41:31.129Z,19.00
2022-09-23T08:44:05.424Z,19.20
2022-09-23T08:46:37.700Z,19.30
2022-09-23T08:49:08.698Z,19.10
2022-09-23T08:51:47.541Z,19.30
2022-09-23T08:54:17.798Z,19.40
2022-09-23T08:56:49.104Z,19.40
2022-09-23T08:59:40.192Z,19.80
2022-09-23T09:02:18.110Z,20.00
2022-09-23T09:04:48.667Z,20.00
2022-09-23T09:07:36.759Z,20.40
2022-09-23T09:10:14.351Z,20.90
2022-09-23T09:12:50.826Z,21.00
2022-09-23T09:15:24.633Z,21.20
2022-09-23T09:18:22.749Z,21.20
2022-09-23T09:21:27.717Z,21.60
2022-09-23T09:24:00.152Z,21.70
2022-09-23T09:26:34.863Z,21.70
2022-09-23T09:33:18.936Z,21.30
2022-09-23T09:35:50.279Z,21.30
2022-09-23T09:38:22.159Z,21.30
2022-09-23T09:40:49.491Z,21.20
2022-09-23T09:43:23.545Z,21.20
2022-09-23T09:46:10.883Z,21.10
2022-09-23T09:48:50.716Z,20.90
2022-09-23T09:51:25.343Z,20.40
2022-09-23T09:53:56.021Z,20.00
2022-09-23T09:56:31.930Z,19.70
2022-09-23T09:59:11.431Z,19.40
2022-09-23T10:01:38.754Z,19.30
2022-09-23T10:04:29.709Z,19.20
2022-09-23T10:07:12.753Z,19.10
2022-09-23T10:09:47.220Z,19.10
2022-09-23T10:12:15.864Z,18.80
2022-09-23T10:14:43.114Z,18.60
2022-09-23T10:17:19.135Z,18.30
2022-09-23T10:19:49.323Z,18.20
2022-09-23T10:22:22.402Z,18.10
2022-09-23T10:24:52.654Z,17.90
2022-09-23T10:27:32.080Z,17.90
2022-09-23T10:30:21.661Z,17.80
2022-09-23T10:32:49.716Z,17.70
2022-09-23T10:35:24.477Z,17.60
2022-09-23T10:37:55.533Z,17.60
2022-09-23T10:40:57.216Z,17.60
2022-09-23T10:44:04.502Z,17.50
2022-09-23T10:46:44.839Z,17.50
2022-09-23T10:49:44.442Z,17.40
2022-09-23T10:52:32.191Z,17.30
2022-09-23T10:55:23.327Z,17.30
2022-09-23T10:58:04.924Z,17.30
2022-09-23T11:01:06.276Z,17.20
2022-09-23T11:03:41.247Z,17.20
2022-09-23T11:06:38.351Z,17.20
2022-09-23T11:09:42.041Z,17.10
2022-09-23T11:12:17.820Z,17.10
2022-09-23T11:14:48.764Z,17.10
2022-09-23T11:17:38.845Z,17.10
2022-09-23T11:20:32.324Z,17.10
2022-09-23T11:23:03.176Z,17.00
2022-09-23T11:25:51.443Z,17.10
2022-09-23T11:28:29.296Z,17.00
2022-09-23T11:31:19.480Z,17.00
2022-09-23T11:33:58.242Z,17.00
2022-09-23T11:37:06.927Z,17.00
2022-09-23T11:39:51.330Z,16.90
2022-09-23T11:42:25.474Z,16.90
2022-09-23T11:45:16.204Z,16.90
2022-09-23T11:47:49.996Z,16.80
2022-09-23T11:50:46.725Z,16.80
2022-09-23T11:53:22.117Z,16.80
2022-09-23T11:56:07.278Z,16.80
2022-09-23T11:59:15.870Z,16.80
2022-09-23T12:01:51.471Z,16.80
2022-09-23T12:04:24.042Z,16.80
2022-09-23T12:07:01.063Z,16.80
2022-09-23T12:09:57.265Z,16.80
2022-09-23T12:12:27.409Z,16.80
2022-09-23T12:15:21.243Z,16.80
2022-09-23T12:18:24.284Z,16.80
2022-09-23T12:21:27.093Z,16.80
2022-09-23T12:24:30.104Z,16.80
2022-09-23T12:27:01.575Z,16.80
2022-09-23T12:29:32.116Z,16.80
2022-09-23T12:32:02.782Z,16.70
2022-09-23T12:34:49.936Z,16.80
2022-09-23T12:37:30.090Z,16.70
2022-09-23T12:40:01.864Z,16.70
2022-09-23T12:42:31.274Z,16.70
2022-09-23T12:45:19.312Z,16.80
2022-09-23T12:47:48.597Z,16.80
2022-09-23T12:50:50.746Z,16.80
2022-09-23T12:53:54.163Z,16.80
2022-09-23T12:56:28.264Z,16.80
2022-09-23T12:59:15.817Z,16.80
2022-09-23T13:01:43.480Z,16.80
2022-09-23T13:05:00.541Z,16.80
2022-09-23T13:07:32.054Z,16.90
2022-09-23T13:10:15.171Z,16.90
2022-09-23T13:12:44.189Z,16.90
2022-09-23T13:15:28.675Z,16.90
2022-09-23T13:18:21.271Z,16.90
2022-09-23T13:20:58.556Z,16.90
2022-09-23T13:23:31.162Z,16.90
2022-09-23T13:26:01.488Z,16.90
2022-09-23T13:28:44.620Z,17.00
2022-09-23T13:31:15.721Z,17.00
2022-09-23T13:33:50.147Z,16.90
2022-09-23T13:36:21.143Z,16.90
2022-09-23T13:38:48.296Z,16.90
2022-09-23T13:41:25.180Z,16.90
2022-09-23T13:43:58.750Z,16.90
2022-09-23T13:46:29.918Z,16.90
2022-09-23T13:48:57.084Z,16.90
2022-09-23T13:51:32.245Z,16.90
2022-09-23T13:54:01.573Z,16.80
2022-09-23T13:57:22.163Z,16.80
2022-09-23T13:59:48.892Z,16.90
2022-09-23T14:02:19.774Z,17.00
2022-09-23T14:04:46.684Z,17.10
2022-09-23T14:07:15.908Z,17.10
2022-09-23T14:10:49.256Z,17.00
2022-09-23T14:13:42.268Z,17.10
2022-09-23T14:16:18.084Z,17.10
2022-09-23T14:18:46.938Z,17.10
2022-09-23T14:21:36.144Z,17.10
2022-09-23T14:24:30.854Z,17.20
2022-09-23T14:27:13.499Z,17.20
2022-09-23T14:29:43.413Z,17.20
2022-09-23T14:32:17.519Z,17.20
2022-09-23T14:35:09.187Z,17.20
2022-09-23T14:37:59.602Z,17.20
2022-09-23T14:40:34.300Z,17.20
2022-09-23T14:43:25.647Z,17.10
2022-09-23T14:45:55.760Z,17.10
2022-09-23T14:48:31.708Z,17.10
2022-09-23T14:51:04.294Z,17.00
2022-09-23T14:53:41.403Z,17.00
2022-09-23T14:56:10.032Z,17.00
2022-09-23T14:58:52.583Z,17.00
2022-09-23T15:01:32.462Z,17.00
2022-09-23T15:04:30.831Z,17.00
2022-09-23T15:06:59.592Z,17.00
2022-09-23T15:09:27.714Z,16.90
2022-09-23T15:12:12.038Z,17.00
2022-09-23T15:14:46.324Z,16.90
2022-09-23T15:17:34.726Z,16.90
2022-09-23T15:20:19.005Z,16.90
2022-09-23T15:27:22.752Z,16.90
2022-09-23T15:29:50.941Z,16.80
2022-09-23T15:32:20.412Z,16.80
2022-09-23T15:34:50.733Z,16.80
2022-09-23T15:37:17.795Z,16.80
2022-09-23T15:39:49.043Z,16.70
2022-09-23T15:42:18.328Z,16.70
2022-09-23T15:44:49.856Z,16.70
2022-09-23T15:47:21.579Z,16.60
2022-09-23T15:49:48.952Z,16.60
2022-09-23T15:52:18.667Z,16.60
2022-09-23T15:54:45.930Z,16.60
2022-09-23T15:57:19.223Z,16.50
2022-09-23T15:59:48.593Z,16.50
2022-09-23T16:02:23.117Z,16.50
2022-09-23T16:04:51.569Z,16.40
2022-09-23T16:07:19.647Z,16.40
2022-09-23T16:09:46.526Z,16.40
2022-09-23T16:12:13.893Z,16.40
2022-09-23T16:14:40.667Z,16.40
2022-09-23T16:17:11.920Z,16.40
2022-09-23T16:19:38.905Z,16.40
2022-09-23T16:22:08.338Z,16.40
2022-09-23T16:24:37.717Z,16.40
2022-09-23T16:27:07.661Z,16.30
2022-09-23T16:29:36.871Z,16.30
2022-09-23T16:32:03.854Z,16.30
2022-09-23T16:34:34.688Z,16.30
2022-09-23T16:37:04.746Z,16.30
2022-09-23T16:39:38.045Z,16.20
2022-09-23T16:42:04.925Z,16.20
2022-09-23T16:44:33.051Z,16.10
2022-09-23T16:46:59.879Z,16.10
2022-09-23T16:49:28.946Z,16.10
2022-09-23T16:51:56.199Z,16.00
2022-09-23T16:54:23.850Z,16.00
2022-09-23T16:56:53.892Z,16.00
2022-09-23T16:59:43.009Z,16.00
2022-09-23T17:02:29.694Z,15.90
2022-09-23T17:04:59.020Z,15.90
2022-09-23T17:07:26.180Z,15.80
2022-09-23T17:09:53.057Z,15.80
2022-09-23T17:12:35.238Z,15.70
2022-09-23T17:15:06.162Z,15.70
2022-09-23T17:17:39.054Z,15.70
2022-09-23T17:20:08.947Z,15.70
2022-09-23T17:22:35.897Z,15.60
2022-09-23T17:25:03.771Z,15.60
2022-09-23T17:27:32.715Z,15.60
2022-09-23T17:29:59.535Z,15.50
2022-09-23T17:32:26.815Z,15.50
2022-09-23T17:34:53.708Z,15.50
2022-09-23T17:37:20.516Z,15.50
2022-09-23T17:39:49.597Z,15.40
2022-09-23T17:42:18.116Z,15.40
2022-09-23T17:44:45.816Z,15.40
2022-09-23T17:47:15.009Z,15.40
2022-09-23T17:49:42.870Z,15.30
2022-09-23T17:52:09.766Z,15.40
2022-09-23T17:54:39.008Z,15.30
2022-09-23T17:57:07.965Z,15.30
2022-09-23T17:59:34.827Z,15.30
2022-09-23T18:02:04.016Z,15.20
2022-09-23T18:04:33.271Z,15.20
2022-09-23T18:06:59.992Z,15.20
2022-09-23T18:09:26.944Z,15.20
2022-09-23T18:11:56.328Z,15.10
2022-09-23T18:14:23.629Z,15.20
2022-09-23T18:16:54.930Z,15.20
2022-09-23T18:19:25.636Z,15.20
2022-09-23T18:21:55.989Z,15.20
2022-09-23T18:24:32.494Z,15.20
2022-09-23T18:27:02.067Z,15.10
2022-09-23T18:29:28.877Z,15.10
2022-09-23T18:31:56.106Z,15.10
2022-09-23T18:34:23.583Z,15.10
2022-09-23T18:36:55.922Z,15.10
2022-09-23T18:39:22.933Z,15.10
2022-09-23T18:41:51.010Z,15.10
2022-09-23T18:44:20.224Z,15.10
2022-09-23T18:46:49.143Z,15.10
2022-09-23T18:49:34.542Z,15.00
2022-09-23T18:52:01.681Z,15.00
2022-09-23T18:54:28.869Z,15.00
2022-09-23T18:56:59.248Z,15.00
2022-09-23T18:59:29.670Z,14.90
2022-09-23T19:02:01.779Z,15.00
2022-09-23T19:04:29.032Z,15.00
2022-09-23T19:06:58.875Z,14.90
2022-09-23T19:09:25.776Z,14.90
2022-09-23T19:11:53.339Z,14.90
2022-09-23T19:14:20.620Z,14.90
2022-09-23T19:16:51.178Z,14.80
2022-09-23T19:19:17.977Z,14.80
2022-09-23T19:21:47.283Z,14.80
2022-09-23T19:24:15.969Z,14.80
2022-09-23T19:26:44.167Z,14.80
2022-09-23T19:29:21.922Z,14.80
2022-09-23T19:31:49.266Z,14.70
2022-09-23T19:34:18.852Z,14.70
2022-09-23T19:36:50.355Z,14.70
2022-09-23T19:39:21.083Z,14.70
2022-09-23T19:41:52.203Z,14.70
2022-09-23T19:44:21.495Z,14.60
2022-09-23T19:46:53.383Z,14.60
2022-09-23T19:49:23.887Z,14.60
2022-09-23T19:51:55.814Z,14.50
2022-09-23T19:54:27.615Z,14.50
2022-09-23T19:56:54.899Z,14.50
2022-09-23T19:59:21.697Z,14.40
2022-09-23T20:01:53.225Z,14.40
2022-09-23T20:04:20.379Z,14.40
2022-09-23T20:06:49.590Z,14.40
2022-09-23T20:09:16.476Z,14.40
2022-09-23T20:11:44.140Z,14.30
2022-09-23T20:14:11.880Z,14.30
2022-09-23T20:16:41.268Z,14.40
2022-09-23T20:19:11.924Z,14.40
2022-09-23T20:21:44.941Z,14.30
2022-09-23T20:24:13.042Z,14.30
2022-09-23T20:27:00.725Z,14.30
2022-09-23T20:29:29.854Z,14.30
2022-09-23T20:31:58.572Z,14.30
2022-09-23T20:34:26.354Z,14.30
2022-09-23T20:36:53.168Z,14.30
2022-09-23T20:39:20.260Z,14.30
2022-09-23T20:41:53.019Z,14.20
2022-09-23T20:44:22.144Z,14.20
2022-09-23T20:46:49.471Z,14.20
2022-09-23T20:49:20.751Z,14.20
2022-09-23T20:51:48.694Z,14.10
2022-09-23T20:54:19.276Z,14.20
2022-09-23T20:56:46.766Z,14.10
2022-09-23T20:59:14.976Z,14.10
2022-09-23T21:01:41.985Z,14.10
2022-09-23T21:04:09.834Z,14.00
2022-09-23T21:06:37.650Z,14.00
2022-09-23T21:09:06.212Z,14.10
2022-09-23T21:11:33.903Z,14.00
2022-09-23T21:14:02.095Z,14.00
2022-09-23T21:16:29.463Z,14.00
2022-09-23T21:18:58.907Z,14.00
2022-09-23T21:21:26.161Z,14.00
2022-09-23T21:24:11.710Z,14.00
2022-09-23T21:26:47.254Z,14.00
2022-09-23T21:29:14.135Z,13.90
2022-09-23T21:31:40.934Z,13.90
2022-09-23T21:34:11.180Z,13.90
2022-09-23T21:36:41.462Z,13.90
2022-09-23T21:39:11.484Z,13.90
2022-09-23T21:41:39.512Z,13.80
2022-09-23T21:44:09.029Z,13.80
2022-09-23T21:46:39.058Z,13.80
2022-09-23T21:49:06.415Z,13.80
2022-09-23T21:51:40.708Z,13.80
2022-09-23T21:54:14.371Z,13.80
2022-09-23T21:56:41.976Z,13.80
2022-09-23T21:59:09.242Z,13.80
2022-09-23T22:01:51.771Z,13.80
2022-09-23T22:04:23.703Z,13.80
2022-09-23T22:06:53.864Z,13.80
2022-09-23T22:09:21.472Z,13.80
2022-09-23T22:12:07.199Z,13.80
2022-09-23T22:14:34.382Z,13.80
2022-09-23T22:17:03.719Z,13.80
2022-09-23T22:19:42.736Z,13.80
2022-09-23T22:22:15.587Z,13.80
2022-09-23T22:24:46.455Z,13.70
2022-09-23T22:27:15.529Z,13.70
2022-09-23T22:34:25.519Z,13.80
2022-09-23T22:36:59.239Z,13.70
2022-09-23T22:39:30.764Z,13.70
2022-09-23T22:41:58.798Z,13.70
2022-09-23T22:44:25.829Z,13.70
2022-09-23T22:46:55.212Z,13.70
2022-09-23T22:49:22.156Z,13.60
2022-09-23T22:51:50.565Z,13.60
2022-09-23T22:54:17.536Z,13.60
2022-09-23T22:56:44.276Z,13.70
2022-09-23T22:59:12.871Z,13.60
2022-09-23T23:01:40.305Z,13.60
2022-09-23T23:04:08.025Z,13.60
2022-09-23T23:06:37.340Z,13.60
2022-09-23T23:09:08.118Z,13.60
2022-09-23T23:11:35.346Z,13.60
2022-09-23T23:14:03.155Z,13.60
2022-09-23T23:16:33.665Z,13.50
2022-09-23T23:19:02.206Z,13.60
2022-09-23T23:21:31.226Z,13.50
2022-09-23T23:23:58.108Z,13.50
2022-09-23T23:26:29.279Z,13.50
2022-09-23T23:28:56.950Z,13.50
2022-09-23T23:31:26.161Z,13.50
2022-09-23T23:33:53.393Z,13.40
2022-09-23T23:36:26.000Z,13.40
2022-09-23T23:38:53.710Z,13.40
2022-09-23T23:41:22.740Z,13.40
2022-09-23T23:43:58.307Z,13.40
2022-09-23T23:46:27.581Z,13.40
2022-09-23T23:48:58.140Z,13.40
2022-09-23T23:51:29.986Z,13.40
2022-09-23T23:53:58.685Z,13.40
2022-09-23T23:56:29.946Z,13.30
2022-09-23T23:59:02.471Z,13.30
